NOZ417 ENAL-ENGM
Flight info
| Callsign | NOZ417 |
|---|---|
| Flight time | N/A |
| Altitude | 33000 |
| Route | GIGIR DCT KEMIV DCT BELGU |
| Aircraft | B738/M-SDE2E3GHIJ1LRWXY/LB1 |
Departure
| Time | 2026-05-05 15:23 |
|---|---|
| Airport | Ålesund Airport (ENAL) |
Arrival
| Time | N/A |
|---|---|
| Airport | Oslo-Gardermoen International Airport (ENGM) |
| Time | Latitude | Longitude | Altitude | Speed | Heading |
|---|---|---|---|---|---|
| 2026-05-05 15:01 | 62.55878 | 6.11301 | 74 ft | 0 kts | 153° |
| 2026-05-05 15:17 | 62.55894 | 6.11282 | 60 ft | 4 kts | 145° |
| 2026-05-05 15:17 | 62.55913 | 6.11244 | 65 ft | 4 kts | 112° |
| 2026-05-05 15:17 | 62.55914 | 6.11204 | 65 ft | 1 kts | 64° |
| 2026-05-05 15:18 | 62.55914 | 6.11203 | 65 ft | 0 kts | 64° |
| 2026-05-05 15:19 | 62.55918 | 6.11218 | 65 ft | 3 kts | 64° |
| 2026-05-05 15:20 | 62.55935 | 6.11297 | 67 ft | 6 kts | 64° |
| 2026-05-05 15:20 | 62.55973 | 6.11371 | 74 ft | 9 kts | 31° |
| 2026-05-05 15:20 | 62.56024 | 6.11473 | 74 ft | 12 kts | 59° |
| 2026-05-05 15:20 | 62.56065 | 6.11652 | 71 ft | 15 kts | 65° |
| 2026-05-05 15:21 | 62.56111 | 6.11863 | 63 ft | 15 kts | 64° |
| 2026-05-05 15:21 | 62.56143 | 6.12004 | 66 ft | 11 kts | 64° |
| 2026-05-05 15:21 | 62.56210 | 6.12117 | 61 ft | 10 kts | 22° |
| 2026-05-05 15:21 | 62.56271 | 6.12121 | 65 ft | 6 kts | 321° |
| 2026-05-05 15:22 | 62.56274 | 6.12057 | 59 ft | 8 kts | 245° |
| 2026-05-05 15:22 | 62.56185 | 6.11670 | 66 ft | 62 kts | 244° |
| 2026-05-05 15:22 | 62.55899 | 6.10370 | 59 ft | 128 kts | 244° |
| 2026-05-05 15:22 | 62.55470 | 6.08488 | 592 ft | 135 kts | 241° |
| 2026-05-05 15:23 | 62.55049 | 6.06653 | 1307 ft | 141 kts | 244° |
| 2026-05-05 15:23 | 62.54597 | 6.04634 | 1902 ft | 162 kts | 244° |
| 2026-05-05 15:23 | 62.54063 | 6.02196 | 2227 ft | 196 kts | 245° |
| 2026-05-05 15:23 | 62.53494 | 5.99586 | 2542 ft | 213 kts | 245° |
| 2026-05-05 15:24 | 62.52854 | 5.96690 | 3182 ft | 218 kts | 244° |
| 2026-05-05 15:24 | 62.52170 | 5.93619 | 3585 ft | 237 kts | 244° |
| 2026-05-05 15:24 | 62.51375 | 5.90412 | 4415 ft | 241 kts | 234° |
| 2026-05-05 15:24 | 62.50101 | 5.88008 | 5329 ft | 249 kts | 212° |
| 2026-05-05 15:25 | 62.48435 | 5.86675 | 6044 ft | 264 kts | 194° |
| 2026-05-05 15:25 | 62.46584 | 5.86758 | 6841 ft | 274 kts | 165° |
| 2026-05-05 15:25 | 62.44922 | 5.88829 | 7762 ft | 281 kts | 139° |
| 2026-05-05 15:25 | 62.43760 | 5.92277 | 8534 ft | 290 kts | 118° |
| 2026-05-05 15:26 | 62.42907 | 5.96218 | 9360 ft | 294 kts | 115° |
| 2026-05-05 15:26 | 62.42089 | 6.00311 | 10153 ft | 299 kts | 114° |
| 2026-05-05 15:26 | 62.41250 | 6.04580 | 10502 ft | 321 kts | 114° |
| 2026-05-05 15:26 | 62.40354 | 6.09117 | 11001 ft | 333 kts | 114° |
| 2026-05-05 15:27 | 62.39434 | 6.13731 | 11781 ft | 338 kts | 114° |
| 2026-05-05 15:27 | 62.38495 | 6.18402 | 12640 ft | 339 kts | 114° |
| 2026-05-05 15:27 | 62.37547 | 6.23079 | 13477 ft | 344 kts | 114° |
| 2026-05-05 15:27 | 62.36580 | 6.27818 | 14267 ft | 348 kts | 114° |
| 2026-05-05 15:28 | 62.35594 | 6.32622 | 15017 ft | 353 kts | 114° |
| 2026-05-05 15:28 | 62.34605 | 6.37426 | 15724 ft | 359 kts | 114° |
| 2026-05-05 15:28 | 62.33580 | 6.42387 | 16439 ft | 366 kts | 114° |
| 2026-05-05 15:28 | 62.32538 | 6.47417 | 17212 ft | 371 kts | 114° |
| 2026-05-05 15:29 | 62.31477 | 6.52525 | 17967 ft | 377 kts | 113° |
| 2026-05-05 15:29 | 62.30395 | 6.57718 | 18599 ft | 384 kts | 114° |
| 2026-05-05 15:29 | 62.29292 | 6.62997 | 19229 ft | 389 kts | 114° |
| 2026-05-05 15:29 | 62.28176 | 6.68326 | 19876 ft | 394 kts | 114° |
| 2026-05-05 15:30 | 62.27042 | 6.73725 | 20499 ft | 400 kts | 114° |
| 2026-05-05 15:30 | 62.25888 | 6.79205 | 21111 ft | 406 kts | 114° |
| 2026-05-05 15:30 | 62.24730 | 6.84689 | 21710 ft | 411 kts | 114° |
| 2026-05-05 15:30 | 62.23542 | 6.90301 | 22290 ft | 416 kts | 114° |
| 2026-05-05 15:31 | 62.22334 | 6.95989 | 22916 ft | 421 kts | 114° |
| 2026-05-05 15:31 | 62.21184 | 7.01393 | 23398 ft | 426 kts | 115° |
| 2026-05-05 15:31 | 62.19945 | 7.07197 | 23875 ft | 431 kts | 115° |
| 2026-05-05 15:31 | 62.18690 | 7.13058 | 24387 ft | 434 kts | 115° |
| 2026-05-05 15:32 | 62.17427 | 7.18949 | 24875 ft | 437 kts | 115° |
| 2026-05-05 15:32 | 62.16150 | 7.24878 | 25393 ft | 440 kts | 115° |
| 2026-05-05 15:32 | 62.14867 | 7.30821 | 25979 ft | 440 kts | 116° |
| 2026-05-05 15:32 | 62.13575 | 7.36791 | 26423 ft | 445 kts | 116° |
| 2026-05-05 15:33 | 62.12283 | 7.42736 | 26785 ft | 450 kts | 116° |
| 2026-05-05 15:33 | 62.10957 | 7.48835 | 27200 ft | 454 kts | 116° |
| 2026-05-05 15:33 | 62.09619 | 7.54971 | 27606 ft | 458 kts | 116° |
| 2026-05-05 15:33 | 62.08269 | 7.61138 | 28035 ft | 461 kts | 116° |
| 2026-05-05 15:34 | 62.06900 | 7.67367 | 28441 ft | 465 kts | 117° |
| 2026-05-05 15:34 | 62.05522 | 7.73626 | 28839 ft | 468 kts | 117° |
| 2026-05-05 15:34 | 62.04134 | 7.79909 | 29301 ft | 470 kts | 117° |
| 2026-05-05 15:34 | 62.02741 | 7.86201 | 29851 ft | 469 kts | 117° |
| 2026-05-05 15:35 | 62.01368 | 7.92382 | 30345 ft | 468 kts | 117° |
| 2026-05-05 15:35 | 61.99973 | 7.98646 | 30804 ft | 467 kts | 117° |
| 2026-05-05 15:35 | 61.98659 | 8.04532 | 31139 ft | 467 kts | 118° |
| 2026-05-05 15:35 | 61.97255 | 8.10795 | 31370 ft | 472 kts | 118° |